No particular awareness of the weather is required.    There are no Weather-warnings


Meteo18 Weather Cam more information Meteo18 Weather Cam


Thunder radar more information blitzortung!


Rain radar more information rain snow radar


Visit our other weather sites:

Template documentation
and downloads

And another site



Weather Underground History page Text

Daily Summary for June 17, 2016 Units:  Metric    English   Both
« Previous Day
Next Day »
Daily Weekly Monthly Yearly Custom
  High: Low: Average:
Temperature: 20.4 °C 11.0 °C 14.4 °C
Dew Point: 15.7 °C 10.3 °C 12.6 °C
Humidity: 97 % 70 % 89 %
Wind Speed: 11.3 km/h 0.0 km/h 1.4 km/h
Wind Gust: 19.3 km/h - -
Wind:- - WSW
Pressure: 1014.8 hPa 1005.0 hPa -
Precipitation: 4.3 mm    
Historical Graphs
 
 
Tabular Data for June 17, 2016
Time Temperature Dew Point Pressure Wind Wind Speed Wind Gust Humidity Rainfall Rate (Hourly)
00:02 11.4 °C 10.8 °C 1005.0 hPa Calm     96 % 0.0 mm
00:07 11.4 °C 10.8 °C 1005.0 hPa Calm     96 % 0.0 mm
00:12 11.3 °C 10.7 °C 1005.0 hPa Calm     96 % 0.0 mm
00:17 11.3 °C 10.7 °C 1005.0 hPa Calm     96 % 0.0 mm
00:22 11.4 °C 10.8 °C 1005.0 hPa Calm     96 % 0.0 mm
00:32 11.4 °C 10.8 °C 1005.3 hPa Calm   1.6 km/h 96 % 0.0 mm
00:42 11.3 °C 10.7 °C 1005.3 hPa Calm     96 % 0.0 mm
00:47 11.2 °C 10.4 °C 1005.3 hPa Calm     95 % 0.0 mm
00:52 11.2 °C 10.6 °C 1005.3 hPa Calm     96 % 0.0 mm
00:57 11.2 °C 10.6 °C 1005.3 hPa Calm     96 % 0.0 mm
01:02 11.1 °C 10.3 °C 1005.3 hPa Calm   1.6 km/h 95 % 0.0 mm
01:12 11.0 °C 10.4 °C 1005.6 hPa Calm   1.6 km/h 96 % 0.0 mm
01:17 11.1 °C 10.5 °C 1005.6 hPa Calm   1.6 km/h 96 % 0.0 mm
01:22 11.1 °C 10.5 °C 1005.6 hPa Calm   1.6 km/h 96 % 0.0 mm
01:37 11.3 °C 10.7 °C 1005.6 hPa Calm   1.6 km/h 96 % 0.0 mm
01:47 11.5 °C 10.9 °C 1006.0 hPa Calm   4.8 km/h 96 % 0.0 mm
01:52 11.6 °C 11.0 °C 1006.0 hPa Calm   4.8 km/h 96 % 0.0 mm
02:02 11.6 °C 11.0 °C 1006.0 hPa Calm   4.8 km/h 96 % 0.0 mm
02:07 11.6 °C 11.0 °C 1006.0 hPa Calm   4.8 km/h 96 % 0.0 mm
02:12 11.6 °C 11.0 °C 1006.0 hPa Calm   3.2 km/h 96 % 0.0 mm
02:17 11.6 °C 11.0 °C 1006.3 hPa WSW 1.6 km/h 3.2 km/h 96 % 0.0 mm
02:22 11.6 °C 11.0 °C 1006.3 hPa Calm   3.2 km/h 96 % 0.0 mm
02:27 11.6 °C 11.0 °C 1006.3 hPa WSW 1.6 km/h 3.2 km/h 96 % 0.0 mm
02:32 11.7 °C 11.2 °C 1006.3 hPa Calm   1.6 km/h 97 % 0.0 mm
02:37 11.7 °C 11.2 °C 1006.3 hPa Calm   1.6 km/h 97 % 0.0 mm
02:42 11.7 °C 11.2 °C 1006.3 hPa Calm   1.6 km/h 97 % 0.0 mm
02:47 11.8 °C 11.3 °C 1006.3 hPa Calm   1.6 km/h 97 % 0.0 mm
02:52 11.8 °C 11.3 °C 1006.3 hPa Calm     97 % 0.0 mm
02:57 11.8 °C 11.3 °C 1006.3 hPa Calm     97 % 0.0 mm
03:02 11.8 °C 11.3 °C 1006.3 hPa Calm   1.6 km/h 97 % 0.0 mm
03:12 11.8 °C 11.3 °C 1006.3 hPa Calm   6.4 km/h 97 % 0.0 mm
03:17 11.8 °C 11.3 °C 1006.3 hPa West 1.6 km/h 6.4 km/h 97 % 0.0 mm
03:22 11.8 °C 11.3 °C 1006.3 hPa Calm   6.4 km/h 97 % 0.0 mm
03:32 11.8 °C 11.3 °C 1006.3 hPa Calm   6.4 km/h 97 % 0.0 mm
03:37 11.8 °C 11.3 °C 1006.3 hPa Calm   6.4 km/h 97 % 0.0 mm
03:42 11.8 °C 11.3 °C 1006.3 hPa SW 3.2 km/h 6.4 km/h 97 % 0.0 mm
03:47 11.8 °C 11.3 °C 1006.3 hPa Calm   4.8 km/h 97 % 0.0 mm
03:52 11.8 °C 11.3 °C 1006.3 hPa WSW 1.6 km/h 4.8 km/h 97 % 0.0 mm
03:57 11.8 °C 11.3 °C 1006.3 hPa Calm   4.8 km/h 97 % 0.0 mm
04:02 11.8 °C 11.2 °C 1006.3 hPa WSW 1.6 km/h 4.8 km/h 96 % 0.0 mm
04:07 11.8 °C 11.3 °C 1006.3 hPa Calm   4.8 km/h 97 % 0.0 mm
04:12 11.8 °C 11.2 °C 1006.7 hPa Calm   4.8 km/h 96 % 0.0 mm
04:17 11.8 °C 11.3 °C 1006.7 hPa Calm   6.4 km/h 97 % 0.0 mm
04:22 11.8 °C 11.3 °C 1006.7 hPa Calm   6.4 km/h 97 % 0.0 mm
04:32 11.9 °C 11.3 °C 1006.7 hPa SW 1.6 km/h 3.2 km/h 96 % 0.0 mm
04:37 11.9 °C 11.3 °C 1006.7 hPa Calm   3.2 km/h 96 % 0.0 mm
04:42 11.9 °C 11.3 °C 1006.7 hPa Calm   3.2 km/h 96 % 0.0 mm
04:47 11.9 °C 11.3 °C 1006.7 hPa Calm   3.2 km/h 96 % 0.0 mm
04:52 11.9 °C 11.3 °C 1006.7 hPa Calm   3.2 km/h 96 % 0.0 mm
04:57 11.9 °C 11.3 °C 1006.7 hPa Calm   4.8 km/h 96 % 0.0 mm
05:02 11.9 °C 11.3 °C 1007.0 hPa Calm   4.8 km/h 96 % 0.0 mm
05:07 12.0 °C 11.4 °C 1007.0 hPa WSW 1.6 km/h 4.8 km/h 96 % 0.0 mm
05:12 12.0 °C 11.4 °C 1007.0 hPa Calm   3.2 km/h 96 % 0.0 mm
05:17 12.0 °C 11.4 °C 1007.0 hPa Calm   6.4 km/h 96 % 0.0 mm
05:22 12.1 °C 11.5 °C 1007.3 hPa Calm   6.4 km/h 96 % 0.0 mm
05:32 12.1 °C 11.5 °C 1007.3 hPa Calm   6.4 km/h 96 % 0.0 mm
05:37 12.1 °C 11.5 °C 1007.3 hPa West 4.8 km/h 6.4 km/h 96 % 0.0 mm
05:42 12.1 °C 11.5 °C 1007.3 hPa Calm   4.8 km/h 96 % 0.0 mm
05:47 12.1 °C 11.5 °C 1007.3 hPa SW 3.2 km/h 4.8 km/h 96 % 0.0 mm
06:02 12.2 °C 11.6 °C 1007.3 hPa SW 3.2 km/h 8.0 km/h 96 % 0.0 mm
06:07 12.2 °C 11.6 °C 1007.3 hPa SW 3.2 km/h 6.4 km/h 96 % 0.0 mm
06:12 12.2 °C 11.6 °C 1007.3 hPa West 1.6 km/h 6.4 km/h 96 % 0.0 mm
06:17 12.2 °C 11.6 °C 1007.7 hPa SW 1.6 km/h 9.7 km/h 96 % 0.0 mm
06:27 12.2 °C 11.6 °C 1007.7 hPa Calm   9.7 km/h 96 % 0.0 mm
06:32 12.2 °C 11.4 °C 1007.7 hPa WSW 3.2 km/h 8.0 km/h 95 % 0.0 mm
06:37 12.2 °C 11.6 °C 1007.7 hPa SW 3.2 km/h 8.0 km/h 96 % 0.0 mm
06:42 12.2 °C 11.6 °C 1008.0 hPa WSW 6.4 km/h 8.0 km/h 96 % 0.0 mm
06:47 12.2 °C 11.4 °C 1008.0 hPa WSW 1.6 km/h 8.0 km/h 95 % 0.0 mm
06:52 12.2 °C 11.4 °C 1008.0 hPa SW 1.6 km/h 6.4 km/h 95 % 0.0 mm
06:57 12.2 °C 11.4 °C 1008.0 hPa North 1.6 km/h 6.4 km/h 95 % 0.0 mm
07:02 12.2 °C 11.4 °C 1008.0 hPa SW 3.2 km/h 6.4 km/h 95 % 0.0 mm
07:12 12.2 °C 11.4 °C 1008.4 hPa Calm   9.7 km/h 95 % 0.0 mm
07:17 12.2 °C 11.4 °C 1008.4 hPa Calm   6.4 km/h 95 % 0.0 mm
07:22 12.3 °C 11.5 °C 1008.4 hPa Calm   4.8 km/h 95 % 0.0 mm
07:27 12.3 °C 11.5 °C 1008.4 hPa SW 6.4 km/h 8.0 km/h 95 % 0.0 mm
07:32 12.4 °C 11.6 °C 1008.4 hPa WSW 1.6 km/h 8.0 km/h 95 % 0.0 mm
07:37 12.4 °C 11.6 °C 1008.4 hPa Calm   8.0 km/h 95 % 0.0 mm
07:42 12.4 °C 11.6 °C 1008.4 hPa WSW 1.6 km/h 6.4 km/h 95 % 0.0 mm
07:47 12.4 °C 11.6 °C 1008.4 hPa Calm   11.3 km/h 95 % 0.0 mm
07:52 12.5 °C 11.7 °C 1008.4 hPa Calm   11.3 km/h 95 % 0.0 mm
08:02 12.7 °C 11.9 °C 1008.4 hPa Calm   4.8 km/h 95 % 0.0 mm
08:12 12.7 °C 11.9 °C 1008.7 hPa West 1.6 km/h 4.8 km/h 95 % 0.0 mm
08:17 12.7 °C 11.9 °C 1008.7 hPa WSW 1.6 km/h 6.4 km/h 95 % 0.0 mm
08:22 12.8 °C 12.0 °C 1008.7 hPa SW 3.2 km/h 6.4 km/h 95 % 0.0 mm
08:32 13.0 °C 12.1 °C 1008.7 hPa WSW 3.2 km/h 6.4 km/h 94 % 0.0 mm
08:47 13.4 °C 12.3 °C 1008.7 hPa WSW 1.6 km/h 8.0 km/h 93 % 0.0 mm
08:57 13.6 °C 12.3 °C 1009.0 hPa WSW 3.2 km/h 11.3 km/h 92 % 0.0 mm
09:02 13.7 °C 12.4 °C 1009.0 hPa Calm   11.3 km/h 92 % 0.0 mm
09:12 14.1 °C 12.7 °C 1009.0 hPa WSW 4.8 km/h 11.3 km/h 91 % 0.0 mm
09:17 13.9 °C 12.3 °C 1009.0 hPa WSW 4.8 km/h 11.3 km/h 90 % 0.0 mm
09:22 13.9 °C 12.3 °C 1009.4 hPa SW 1.6 km/h 11.3 km/h 90 % 0.0 mm
09:32 14.3 °C 12.7 °C 1009.4 hPa Calm   11.3 km/h 90 % 0.0 mm
09:37 14.6 °C 12.8 °C 1009.4 hPa WSW 6.4 km/h 8.0 km/h 89 % 0.0 mm
09:42 15.0 °C 13.2 °C 1009.4 hPa West 6.4 km/h 9.7 km/h 89 % 0.0 mm
09:47 15.1 °C 12.8 °C 1009.4 hPa West 1.6 km/h 9.7 km/h 86 % 0.0 mm
09:52 15.2 °C 12.7 °C 1009.4 hPa WSW 1.6 km/h 12.9 km/h 85 % 0.0 mm
09:57 15.3 °C 13.0 °C 1009.4 hPa West 1.6 km/h 12.9 km/h 86 % 0.0 mm
10:02 15.6 °C 13.1 °C 1009.4 hPa WSW 3.2 km/h 12.9 km/h 85 % 0.0 mm
10:12 15.7 °C 12.8 °C 1009.4 hPa WSW 1.6 km/h 14.5 km/h 83 % 0.0 mm
10:17 16.1 °C 13.4 °C 1009.4 hPa Calm   14.5 km/h 84 % 0.0 mm
10:22 16.6 °C 13.3 °C 1009.4 hPa WSW 1.6 km/h 14.5 km/h 81 % 0.0 mm
10:27 16.4 °C 13.1 °C 1009.4 hPa SW 4.8 km/h 9.7 km/h 81 % 0.0 mm
10:32 15.9 °C 12.5 °C 1009.4 hPa West 4.8 km/h 9.7 km/h 80 % 0.0 mm
10:37 15.8 °C 12.9 °C 1009.7 hPa WSW 1.6 km/h 11.3 km/h 83 % 0.0 mm
10:42 16.2 °C 13.1 °C 1009.7 hPa SW 3.2 km/h 11.3 km/h 82 % 0.0 mm
10:52 16.1 °C 12.6 °C 1009.7 hPa SW 4.8 km/h 9.7 km/h 80 % 0.0 mm
10:57 15.9 °C 12.6 °C 1009.7 hPa West 6.4 km/h 14.5 km/h 81 % 0.0 mm
11:02 16.0 °C 12.7 °C 1010.0 hPa WSW 1.6 km/h 14.5 km/h 81 % 0.0 mm
11:07 16.0 °C 12.6 °C 1010.0 hPa SW 6.4 km/h 14.5 km/h 80 % 0.0 mm
11:12 15.9 °C 12.6 °C 1010.0 hPa WSW 4.8 km/h 9.7 km/h 81 % 0.0 mm
11:17 16.1 °C 13.0 °C 1010.0 hPa South 1.6 km/h 9.7 km/h 82 % 0.0 mm
11:22 16.3 °C 13.0 °C 1010.0 hPa West 1.6 km/h 8.0 km/h 81 % 0.0 mm
11:32 17.2 °C 12.9 °C 1010.0 hPa Calm   14.5 km/h 76 % 0.0 mm
11:37 16.8 °C 12.9 °C 1010.0 hPa WSW 3.2 km/h 14.5 km/h 78 % 0.0 mm
11:42 16.7 °C 13.4 °C 1010.0 hPa SSW 3.2 km/h 14.5 km/h 81 % 0.0 mm
11:52 16.7 °C 12.6 °C 1010.0 hPa Calm   11.3 km/h 77 % 0.3 mm
11:57 15.6 °C 12.4 °C 1010.0 hPa Calm   11.3 km/h 81 % 1.0 mm
12:02 15.2 °C 12.7 °C 1010.0 hPa Calm   11.3 km/h 85 % 1.0 mm
12:12 15.2 °C 13.2 °C 1010.0 hPa WSW 1.6 km/h 3.2 km/h 88 % 1.3 mm
12:17 15.1 °C 13.3 °C 1010.0 hPa Calm   3.2 km/h 89 % 1.3 mm
12:22 15.6 °C 14.0 °C 1010.0 hPa Calm   3.2 km/h 90 % 1.3 mm
12:32 17.1 °C 14.4 °C 1010.0 hPa Calm   6.4 km/h 84 % 1.3 mm
12:42 17.3 °C 14.2 °C 1010.0 hPa WSW 6.4 km/h 8.0 km/h 82 % 1.3 mm
12:47 16.6 °C 13.5 °C 1010.4 hPa WSW 1.6 km/h 9.7 km/h 82 % 1.3 mm
12:52 15.8 °C 13.3 °C 1010.4 hPa Calm   9.7 km/h 85 % 1.0 mm
12:57 14.9 °C 12.4 °C 1010.4 hPa SSW 3.2 km/h 9.7 km/h 85 % 0.8 mm
13:02 14.2 °C 12.1 °C 1010.4 hPa WSW 3.2 km/h 8.0 km/h 87 % 1.3 mm
13:07 13.9 °C 12.1 °C 1010.4 hPa SW 3.2 km/h 9.7 km/h 89 % 1.5 mm
13:12 13.6 °C 11.6 °C 1010.4 hPa WSW 3.2 km/h 9.7 km/h 88 % 1.5 mm
13:17 13.9 °C 12.5 °C 1010.4 hPa WNW 1.6 km/h 8.0 km/h 91 % 1.5 mm
13:22 15.0 °C 13.9 °C 1010.4 hPa WSW 3.2 km/h 8.0 km/h 93 % 1.5 mm
13:32 15.4 °C 13.2 °C 1010.4 hPa WSW 1.6 km/h 8.0 km/h 87 % 1.5 mm
13:37 15.4 °C 13.2 °C 1010.4 hPa SW 3.2 km/h 8.0 km/h 87 % 1.5 mm
13:42 15.6 °C 13.6 °C 1010.4 hPa WSW 4.8 km/h 8.0 km/h 88 % 1.5 mm
13:47 16.1 °C 14.1 °C 1010.4 hPa Calm   8.0 km/h 88 % 1.5 mm
13:52 16.7 °C 15.1 °C 1010.0 hPa WSW 1.6 km/h 8.0 km/h 90 % 1.3 mm
13:57 17.4 °C 15.0 °C 1010.4 hPa WSW 1.6 km/h 8.0 km/h 86 % 0.8 mm
14:02 17.5 °C 14.2 °C 1010.4 hPa West 3.2 km/h 11.3 km/h 81 % 0.5 mm
14:07 17.2 °C 14.3 °C 1010.4 hPa WSW 4.8 km/h 11.3 km/h 83 % 0.3 mm
14:12 16.9 °C 14.2 °C 1010.0 hPa SW 1.6 km/h 11.3 km/h 84 % 0.3 mm
14:17 16.9 °C 14.5 °C 1010.0 hPa Calm   6.4 km/h 86 % 0.3 mm
14:22 17.4 °C 15.0 °C 1010.0 hPa Calm   6.4 km/h 86 % 0.3 mm
14:32 18.4 °C 15.1 °C 1010.0 hPa SW 1.6 km/h 8.0 km/h 81 % 0.3 mm
14:37 18.8 °C 14.9 °C 1010.0 hPa SW 4.8 km/h 8.0 km/h 78 % 0.3 mm
14:42 19.3 °C 15.4 °C 1010.0 hPa WSW 4.8 km/h 8.0 km/h 78 % 0.3 mm
14:47 19.6 °C 15.7 °C 1010.0 hPa SW 4.8 km/h 8.0 km/h 78 % 0.3 mm
14:57 20.4 °C 15.4 °C 1010.0 hPa West 1.6 km/h 8.0 km/h 73 % 0.3 mm
15:02 20.2 °C 15.2 °C 1010.0 hPa West 6.4 km/h 8.0 km/h 73 % 0.3 mm
15:07 19.7 °C 14.5 °C 1010.0 hPa WSW 1.6 km/h 12.9 km/h 72 % 0.0 mm
15:12 19.7 °C 14.7 °C 1010.0 hPa WSW 3.2 km/h 12.9 km/h 73 % 0.0 mm
15:17 19.1 °C 13.5 °C 1010.4 hPa SSW 8.0 km/h 12.9 km/h 70 % 0.0 mm
15:22 18.7 °C 13.3 °C 1010.0 hPa West 11.3 km/h 17.7 km/h 71 % 0.0 mm
15:32 18.7 °C 13.3 °C 1010.0 hPa West 4.8 km/h 17.7 km/h 71 % 0.0 mm
15:42 18.3 °C 13.2 °C 1010.7 hPa West 3.2 km/h 12.9 km/h 72 % 0.0 mm
15:47 17.9 °C 13.6 °C 1010.7 hPa Calm   9.7 km/h 76 % 0.0 mm
15:52 17.6 °C 13.5 °C 1010.7 hPa Calm   9.7 km/h 77 % 0.0 mm
16:02 17.6 °C 13.9 °C 1010.7 hPa Calm   6.4 km/h 79 % 0.0 mm
16:12 18.2 °C 14.7 °C 1010.4 hPa Calm   4.8 km/h 80 % 0.0 mm
16:17 19.2 °C 15.1 °C 1010.7 hPa WSW 4.8 km/h 4.8 km/h 77 % 0.0 mm
16:22 19.3 °C 13.7 °C 1010.7 hPa WSW 4.8 km/h 14.5 km/h 70 % 0.0 mm
16:27 18.8 °C 13.2 °C 1010.7 hPa SSW 11.3 km/h 14.5 km/h 70 % 0.0 mm
16:32 18.7 °C 13.8 °C 1010.7 hPa SW 1.6 km/h 14.5 km/h 73 % 0.0 mm
16:42 18.4 °C 13.0 °C 1011.1 hPa SW 4.8 km/h 14.5 km/h 71 % 0.0 mm
16:47 17.9 °C 12.8 °C 1011.4 hPa West 8.0 km/h 14.5 km/h 72 % 0.0 mm
16:52 16.7 °C 12.8 °C 1011.7 hPa SW 6.4 km/h 16.1 km/h 78 % 0.3 mm
17:02 14.9 °C 11.9 °C 1011.4 hPa WSW 3.2 km/h 19.3 km/h 82 % 0.5 mm
17:07 14.4 °C 11.9 °C 1011.4 hPa Calm   19.3 km/h 85 % 0.5 mm
17:12 14.1 °C 11.8 °C 1011.1 hPa Calm   8.0 km/h 86 % 0.8 mm
17:17 13.9 °C 11.9 °C 1011.1 hPa Calm   6.4 km/h 88 % 1.0 mm
17:22 14.0 °C 12.4 °C 1011.1 hPa Calm   6.4 km/h 90 % 1.3 mm
17:27 14.2 °C 12.8 °C 1011.1 hPa Calm   4.8 km/h 91 % 1.3 mm
17:32 14.4 °C 13.1 °C 1011.1 hPa Calm   1.6 km/h 92 % 1.3 mm
17:37 14.8 °C 13.7 °C 1011.1 hPa Calm     93 % 1.3 mm
17:42 15.3 °C 14.0 °C 1011.1 hPa Calm     92 % 1.3 mm
17:52 16.3 °C 14.8 °C 1011.1 hPa Calm   4.8 km/h 91 % 1.0 mm
17:57 16.7 °C 14.7 °C 1011.4 hPa WSW 1.6 km/h 4.8 km/h 88 % 0.8 mm
18:02 17.0 °C 14.6 °C 1011.4 hPa West 3.2 km/h 4.8 km/h 86 % 0.5 mm
18:07 17.1 °C 14.6 °C 1011.4 hPa Calm   9.7 km/h 85 % 0.5 mm
18:12 17.2 °C 14.7 °C 1011.4 hPa Calm   9.7 km/h 85 % 0.3 mm
18:17 17.1 °C 14.7 °C 1011.4 hPa Calm   9.7 km/h 86 % 0.3 mm
18:22 17.4 °C 15.0 °C 1011.4 hPa Calm   6.4 km/h 86 % 0.0 mm
18:32 17.4 °C 15.0 °C 1011.4 hPa Calm   4.8 km/h 86 % 0.0 mm
18:42 17.0 °C 14.6 °C 1011.4 hPa Calm   3.2 km/h 86 % 0.0 mm
18:47 16.9 °C 14.5 °C 1011.4 hPa Calm   3.2 km/h 86 % 0.0 mm
18:52 17.0 °C 15.0 °C 1011.4 hPa Calm   1.6 km/h 88 % 0.0 mm
18:57 17.1 °C 14.7 °C 1011.4 hPa Calm   1.6 km/h 86 % 0.0 mm
19:02 17.4 °C 15.0 °C 1011.4 hPa Calm   1.6 km/h 86 % 0.0 mm
19:12 18.1 °C 14.6 °C 1011.4 hPa Calm   3.2 km/h 80 % 0.0 mm
19:17 18.0 °C 14.5 °C 1011.4 hPa Calm   4.8 km/h 80 % 0.0 mm
19:22 18.1 °C 15.0 °C 1011.7 hPa Calm   4.8 km/h 82 % 0.0 mm
19:27 17.9 °C 14.8 °C 1011.7 hPa WSW 3.2 km/h 6.4 km/h 82 % 0.0 mm
19:32 17.7 °C 14.6 °C 1011.7 hPa WSW 1.6 km/h 6.4 km/h 82 % 0.0 mm
19:37 17.7 °C 14.4 °C 1011.7 hPa West 3.2 km/h 8.0 km/h 81 % 0.0 mm
19:42 17.8 °C 14.3 °C 1011.7 hPa WSW 3.2 km/h 8.0 km/h 80 % 0.0 mm
19:47 17.6 °C 14.3 °C 1011.7 hPa WSW 3.2 km/h 8.0 km/h 81 % 0.0 mm
19:52 17.4 °C 14.7 °C 1012.1 hPa SW 1.6 km/h 8.0 km/h 84 % 0.0 mm
19:57 17.1 °C 14.7 °C 1012.1 hPa Calm   8.0 km/h 86 % 0.0 mm
20:02 16.9 °C 14.4 °C 1012.1 hPa SSW 1.6 km/h 4.8 km/h 85 % 0.0 mm
20:07 16.6 °C 14.1 °C 1012.1 hPa SW 3.2 km/h 4.8 km/h 85 % 0.0 mm
20:12 16.4 °C 13.9 °C 1012.1 hPa West 1.6 km/h 4.8 km/h 85 % 0.0 mm
20:17 16.2 °C 13.9 °C 1012.4 hPa WSW 1.6 km/h 9.7 km/h 86 % 0.0 mm
20:22 15.8 °C 13.5 °C 1012.4 hPa Calm   11.3 km/h 86 % 0.0 mm
20:32 15.4 °C 13.4 °C 1012.4 hPa Calm   11.3 km/h 88 % 0.0 mm
20:37 15.3 °C 13.5 °C 1012.8 hPa Calm   8.0 km/h 89 % 0.0 mm
20:42 15.2 °C 13.4 °C 1012.8 hPa Calm   8.0 km/h 89 % 0.0 mm
20:47 15.1 °C 13.3 °C 1012.8 hPa WSW 1.6 km/h 4.8 km/h 89 % 0.0 mm
20:52 14.8 °C 12.8 °C 1013.1 hPa Calm   3.2 km/h 88 % 0.0 mm
20:57 14.7 °C 12.6 °C 1013.1 hPa Calm   8.0 km/h 87 % 0.0 mm
21:02 14.5 °C 12.4 °C 1013.1 hPa SW 4.8 km/h 8.0 km/h 87 % 0.0 mm
21:12 14.3 °C 12.5 °C 1013.1 hPa Calm   4.8 km/h 89 % 0.0 mm
21:17 14.2 °C 12.6 °C 1013.1 hPa Calm   4.8 km/h 90 % 0.0 mm
21:22 14.2 °C 12.8 °C 1013.1 hPa Calm   4.8 km/h 91 % 0.0 mm
21:27 14.2 °C 12.8 °C 1013.1 hPa Calm   4.8 km/h 91 % 0.0 mm
21:32 14.1 °C 12.7 °C 1013.4 hPa Calm   4.8 km/h 91 % 0.0 mm
21:37 14.0 °C 12.6 °C 1013.4 hPa Calm   3.2 km/h 91 % 0.0 mm
21:42 13.9 °C 12.5 °C 1013.4 hPa Calm   3.2 km/h 91 % 0.0 mm
21:47 13.9 °C 12.6 °C 1013.4 hPa Calm   1.6 km/h 92 % 0.0 mm
21:52 13.8 °C 12.7 °C 1013.4 hPa Calm     93 % 0.0 mm
21:57 13.7 °C 12.6 °C 1013.4 hPa Calm     93 % 0.0 mm
22:02 13.6 °C 12.5 °C 1013.4 hPa Calm     93 % 0.0 mm
22:07 13.6 °C 12.7 °C 1013.8 hPa Calm     94 % 0.0 mm
22:12 13.4 °C 12.5 °C 1013.8 hPa Calm     94 % 0.0 mm
22:22 13.3 °C 12.4 °C 1013.8 hPa Calm     94 % 0.0 mm
22:32 13.1 °C 12.3 °C 1013.8 hPa Calm     95 % 0.0 mm
22:37 13.1 °C 12.3 °C 1013.8 hPa Calm     95 % 0.0 mm
22:42 13.0 °C 12.2 °C 1014.1 hPa Calm     95 % 0.0 mm
22:47 12.9 °C 12.1 °C 1014.1 hPa Calm     95 % 0.0 mm
22:57 12.8 °C 12.0 °C 1014.1 hPa Calm     95 % 0.0 mm
23:02 12.7 °C 11.9 °C 1014.1 hPa Calm     95 % 0.0 mm
23:07 12.6 °C 11.8 °C 1014.4 hPa Calm     95 % 0.0 mm
23:12 12.4 °C 11.6 °C 1014.4 hPa Calm     95 % 0.0 mm
23:17 12.2 °C 11.4 °C 1014.4 hPa Calm     95 % 0.0 mm
23:22 12.2 °C 11.6 °C 1014.4 hPa Calm     96 % 0.0 mm
23:27 12.1 °C 11.5 °C 1014.4 hPa Calm     96 % 0.0 mm
23:32 12.1 °C 11.5 °C 1014.4 hPa Calm     96 % 0.0 mm
23:37 12.0 °C 11.4 °C 1014.4 hPa Calm     96 % 0.0 mm
23:42 11.9 °C 11.3 °C 1014.8 hPa Calm     96 % 0.0 mm
23:47 11.9 °C 11.3 °C 1014.8 hPa Calm     96 % 0.0 mm
23:52 11.8 °C 11.2 °C 1014.8 hPa Calm     96 % 0.0 mm
23:57 11.7 °C 11.1 °C 1014.8 hPa Calm     96 % 0.0 mm
Meteo18
Compliments of Weather Underground - 4 mb

Script developed by  Jim McMurry - jmcmurry@mwt.net Adapted for the template by  Wim van der Kuil - Leuven-Template.eu

You find our weather info also at:

European Weather Network

Weather Underground

Equipment we use:

Weather-station
Davis Vue

Weather-program
Meteohub

Weather-server
Raspberry PI 2 B+

Provider
1 and 1

Davis Vue

Meteohub

Raspberry PI 2 B+

1 and 1